sensor_id;sensor_type;location;lat;lon;timestamp;temperature;humidity
2407;DHT22;37709;53.480;9.688;2023-02-26T00:01:28;-2.50;99.90
2407;DHT22;37709;53.480;9.688;2023-02-26T00:03:58;-2.40;99.90
2407;DHT22;37709;53.480;9.688;2023-02-26T00:06:26;-2.50;99.90
2407;DHT22;37709;53.480;9.688;2023-02-26T00:08:55;-2.50;99.90
2407;DHT22;37709;53.480;9.688;2023-02-26T00:11:23;-2.30;99.90
2407;DHT22;37709;53.480;9.688;2023-02-26T00:13:50;-2.40;99.90
2407;DHT22;37709;53.480;9.688;2023-02-26T00:16:32;-2.40;99.90
2407;DHT22;37709;53.480;9.688;2023-02-26T00:19:04;-2.40;99.90
2407;DHT22;37709;53.480;9.688;2023-02-26T00:21:32;-2.50;99.90
2407;DHT22;37709;53.480;9.688;2023-02-26T00:24:00;-2.50;99.90
2407;DHT22;37709;53.480;9.688;2023-02-26T00:26:29;-2.50;99.90
2407;DHT22;37709;53.480;9.688;2023-02-26T00:28:58;-2.50;99.90
2407;DHT22;37709;53.480;9.688;2023-02-26T00:31:26;-2.60;99.90
2407;DHT22;37709;53.480;9.688;2023-02-26T00:33:56;-2.60;99.90
2407;DHT22;37709;53.480;9.688;2023-02-26T00:39:33;-2.70;99.90
2407;DHT22;37709;53.480;9.688;2023-02-26T00:41:56;-2.70;99.90
2407;DHT22;37709;53.480;9.688;2023-02-26T00:44:24;-2.70;99.90
2407;DHT22;37709;53.480;9.688;2023-02-26T00:46:56;-2.70;99.90
2407;DHT22;37709;53.480;9.688;2023-02-26T00:49:36;-2.80;99.90
2407;DHT22;37709;53.480;9.688;2023-02-26T00:52:13;-2.70;99.90
2407;DHT22;37709;53.480;9.688;2023-02-26T00:54:43;-2.90;99.90
2407;DHT22;37709;53.480;9.688;2023-02-26T00:57:14;-2.80;99.90
2407;DHT22;37709;53.480;9.688;2023-02-26T00:59:42;-2.80;99.90
2407;DHT22;37709;53.480;9.688;2023-02-26T01:02:09;-2.80;99.90
2407;DHT22;37709;53.480;9.688;2023-02-26T01:04:37;-2.90;99.90
2407;DHT22;37709;53.480;9.688;2023-02-26T01:07:06;-2.80;99.90
2407;DHT22;37709;53.480;9.688;2023-02-26T01:09:36;-2.80;99.90
2407;DHT22;37709;53.480;9.688;2023-02-26T01:12:07;-2.90;99.90
2407;DHT22;37709;53.480;9.688;2023-02-26T01:14:35;-3.00;99.90
2407;DHT22;37709;53.480;9.688;2023-02-26T01:17:07;-3.00;99.90
2407;DHT22;37709;53.480;9.688;2023-02-26T01:19:52;-2.90;99.90
2407;DHT22;37709;53.480;9.688;2023-02-26T01:25:57;-2.90;99.90
2407;DHT22;37709;53.480;9.688;2023-02-26T01:28:25;-3.00;99.90
2407;DHT22;37709;53.480;9.688;2023-02-26T01:30:57;-3.00;99.90
2407;DHT22;37709;53.480;9.688;2023-02-26T01:33:46;-3.20;99.90
2407;DHT22;37709;53.480;9.688;2023-02-26T01:36:23;-3.30;99.90
2407;DHT22;37709;53.480;9.688;2023-02-26T01:39:13;-3.40;99.90
2407;DHT22;37709;53.480;9.688;2023-02-26T01:41:46;-3.40;99.90
2407;DHT22;37709;53.480;9.688;2023-02-26T01:44:28;-3.50;99.90
2407;DHT22;37709;53.480;9.688;2023-02-26T01:47:00;-3.50;99.90
2407;DHT22;37709;53.480;9.688;2023-02-26T01:49:29;-3.40;99.90
2407;DHT22;37709;53.480;9.688;2023-02-26T01:51:59;-3.30;99.90
2407;DHT22;37709;53.480;9.688;2023-02-26T01:54:31;-3.30;99.90
2407;DHT22;37709;53.480;9.688;2023-02-26T01:57:09;-3.20;99.90
2407;DHT22;37709;53.480;9.688;2023-02-26T01:59:40;-3.10;99.90
2407;DHT22;37709;53.480;9.688;2023-02-26T02:02:09;-3.10;99.90
2407;DHT22;37709;53.480;9.688;2023-02-26T02:04:39;-3.00;99.90
2407;DHT22;37709;53.480;9.688;2023-02-26T02:07:06;-2.90;99.90
2407;DHT22;37709;53.480;9.688;2023-02-26T02:09:34;-2.80;99.90
2407;DHT22;37709;53.480;9.688;2023-02-26T02:23:18;-2.00;99.90
2407;DHT22;37709;53.480;9.688;2023-02-26T02:34:30;-1.80;99.90
2407;DHT22;37709;53.480;9.688;2023-02-26T02:37:05;-1.80;99.90
2407;DHT22;37709;53.480;9.688;2023-02-26T02:39:39;-1.80;99.90
2407;DHT22;37709;53.480;9.688;2023-02-26T02:42:27;-2.00;99.90
2407;DHT22;37709;53.480;9.688;2023-02-26T02:45:10;-2.20;99.90
2407;DHT22;37709;53.480;9.688;2023-02-26T02:47:42;-2.30;99.90
2407;DHT22;37709;53.480;9.688;2023-02-26T02:50:24;-2.40;99.90
2407;DHT22;37709;53.480;9.688;2023-02-26T02:52:59;-2.50;99.90
2407;DHT22;37709;53.480;9.688;2023-02-26T02:55:35;-2.60;99.90
2407;DHT22;37709;53.480;9.688;2023-02-26T02:58:13;-2.70;99.90
2407;DHT22;37709;53.480;9.688;2023-02-26T03:00:49;-2.80;99.90
2407;DHT22;37709;53.480;9.688;2023-02-26T03:05:59;-3.10;99.90
2407;DHT22;37709;53.480;9.688;2023-02-26T03:08:30;-3.20;99.90
2407;DHT22;37709;53.480;9.688;2023-02-26T03:11:00;-3.10;99.90
2407;DHT22;37709;53.480;9.688;2023-02-26T03:13:27;-3.10;99.90
2407;DHT22;37709;53.480;9.688;2023-02-26T03:16:35;-3.20;99.90
2407;DHT22;37709;53.480;9.688;2023-02-26T03:19:36;-3.20;99.90
2407;DHT22;37709;53.480;9.688;2023-02-26T03:22:50;-3.30;99.90
2407;DHT22;37709;53.480;9.688;2023-02-26T03:25:26;-3.30;99.90
2407;DHT22;37709;53.480;9.688;2023-02-26T03:31:03;-3.30;99.90
2407;DHT22;37709;53.480;9.688;2023-02-26T03:36:33;-3.30;99.90
2407;DHT22;37709;53.480;9.688;2023-02-26T03:39:23;-3.30;99.90
2407;DHT22;37709;53.480;9.688;2023-02-26T03:42:10;-3.40;99.90
2407;DHT22;37709;53.480;9.688;2023-02-26T03:47:32;-3.50;99.90
2407;DHT22;37709;53.480;9.688;2023-02-26T03:50:15;-3.40;99.90
2407;DHT22;37709;53.480;9.688;2023-02-26T03:52:53;-3.30;99.90
2407;DHT22;37709;53.480;9.688;2023-02-26T03:56:10;-3.20;99.90
2407;DHT22;37709;53.480;9.688;2023-02-26T03:58:55;-3.10;99.90
2407;DHT22;37709;53.480;9.688;2023-02-26T04:01:29;-3.10;99.90
2407;DHT22;37709;53.480;9.688;2023-02-26T04:04:06;-3.20;99.90
2407;DHT22;37709;53.480;9.688;2023-02-26T04:06:35;-3.30;99.90
2407;DHT22;37709;53.480;9.688;2023-02-26T04:09:03;-3.30;99.90
2407;DHT22;37709;53.480;9.688;2023-02-26T04:11:34;-3.30;99.90
2407;DHT22;37709;53.480;9.688;2023-02-26T04:14:03;-3.20;99.90
2407;DHT22;37709;53.480;9.688;2023-02-26T04:16:35;-3.10;99.90
2407;DHT22;37709;53.480;9.688;2023-02-26T04:19:02;-3.10;99.90
2407;DHT22;37709;53.480;9.688;2023-02-26T04:21:30;-3.20;99.90
2407;DHT22;37709;53.480;9.688;2023-02-26T04:23:57;-3.20;99.90
2407;DHT22;37709;53.480;9.688;2023-02-26T04:26:24;-3.20;99.90
2407;DHT22;37709;53.480;9.688;2023-02-26T04:28:53;-3.20;99.90
2407;DHT22;37709;53.480;9.688;2023-02-26T04:31:20;-3.20;99.90
2407;DHT22;37709;53.480;9.688;2023-02-26T04:33:47;-3.30;99.90
2407;DHT22;37709;53.480;9.688;2023-02-26T04:36:15;-3.40;99.90
2407;DHT22;37709;53.480;9.688;2023-02-26T04:38:42;-3.40;99.90
2407;DHT22;37709;53.480;9.688;2023-02-26T04:41:10;-3.50;99.90
2407;DHT22;37709;53.480;9.688;2023-02-26T04:43:37;-3.50;99.90
2407;DHT22;37709;53.480;9.688;2023-02-26T04:46:31;-3.50;99.90
2407;DHT22;37709;53.480;9.688;2023-02-26T04:48:59;-3.50;99.90
2407;DHT22;37709;53.480;9.688;2023-02-26T04:51:27;-3.50;99.90
2407;DHT22;37709;53.480;9.688;2023-02-26T04:53:54;-3.50;99.90
2407;DHT22;37709;53.480;9.688;2023-02-26T04:56:21;-3.60;99.90
2407;DHT22;37709;53.480;9.688;2023-02-26T04:58:49;-3.50;99.90
2407;DHT22;37709;53.480;9.688;2023-02-26T05:01:22;-3.50;99.90
2407;DHT22;37709;53.480;9.688;2023-02-26T05:03:49;-3.50;99.90
2407;DHT22;37709;53.480;9.688;2023-02-26T05:06:17;-3.50;99.90
2407;DHT22;37709;53.480;9.688;2023-02-26T05:08:44;-3.60;99.90
2407;DHT22;37709;53.480;9.688;2023-02-26T05:11:11;-3.50;99.90
2407;DHT22;37709;53.480;9.688;2023-02-26T05:13:39;-3.60;99.90
2407;DHT22;37709;53.480;9.688;2023-02-26T05:16:07;-3.60;99.90
2407;DHT22;37709;53.480;9.688;2023-02-26T05:18:35;-3.60;99.90
2407;DHT22;37709;53.480;9.688;2023-02-26T05:21:03;-3.70;99.90
2407;DHT22;37709;53.480;9.688;2023-02-26T05:23:32;-3.70;99.90
2407;DHT22;37709;53.480;9.688;2023-02-26T05:26:00;-3.80;99.90
2407;DHT22;37709;53.480;9.688;2023-02-26T05:28:28;-3.80;99.90
2407;DHT22;37709;53.480;9.688;2023-02-26T05:30:56;-3.80;99.90
2407;DHT22;37709;53.480;9.688;2023-02-26T05:33:25;-3.80;99.90
2407;DHT22;37709;53.480;9.688;2023-02-26T05:35:52;-3.80;99.90
2407;DHT22;37709;53.480;9.688;2023-02-26T05:38:20;-3.80;99.90
2407;DHT22;37709;53.480;9.688;2023-02-26T05:40:47;-3.80;99.90
2407;DHT22;37709;53.480;9.688;2023-02-26T05:43:15;-3.80;99.90
2407;DHT22;37709;53.480;9.688;2023-02-26T05:45:42;-3.90;99.90
2407;DHT22;37709;53.480;9.688;2023-02-26T05:48:10;-3.80;99.90
2407;DHT22;37709;53.480;9.688;2023-02-26T05:50:37;-3.90;99.90
2407;DHT22;37709;53.480;9.688;2023-02-26T05:53:05;-3.90;99.90
2407;DHT22;37709;53.480;9.688;2023-02-26T05:55:32;-3.90;99.90
2407;DHT22;37709;53.480;9.688;2023-02-26T05:58:00;-3.90;99.90
2407;DHT22;37709;53.480;9.688;2023-02-26T06:00:27;-3.80;99.90
2407;DHT22;37709;53.480;9.688;2023-02-26T06:02:54;-3.80;99.90
2407;DHT22;37709;53.480;9.688;2023-02-26T06:05:22;-3.80;99.90
2407;DHT22;37709;53.480;9.688;2023-02-26T06:07:49;-3.90;99.90
2407;DHT22;37709;53.480;9.688;2023-02-26T06:10:17;-3.90;99.90
2407;DHT22;37709;53.480;9.688;2023-02-26T06:12:44;-4.20;99.90
2407;DHT22;37709;53.480;9.688;2023-02-26T06:15:12;-4.30;99.90
2407;DHT22;37709;53.480;9.688;2023-02-26T06:17:39;-4.40;99.90
2407;DHT22;37709;53.480;9.688;2023-02-26T06:20:08;-4.20;99.90
2407;DHT22;37709;53.480;9.688;2023-02-26T06:22:35;-4.10;99.90
2407;DHT22;37709;53.480;9.688;2023-02-26T06:25:03;-3.90;99.90
2407;DHT22;37709;53.480;9.688;2023-02-26T06:27:30;-3.80;99.90
2407;DHT22;37709;53.480;9.688;2023-02-26T06:29:57;-3.70;99.90
2407;DHT22;37709;53.480;9.688;2023-02-26T06:32:26;-3.70;99.90
2407;DHT22;37709;53.480;9.688;2023-02-26T06:34:56;-3.70;99.90
2407;DHT22;37709;53.480;9.688;2023-02-26T06:37:24;-3.60;99.90
2407;DHT22;37709;53.480;9.688;2023-02-26T06:39:51;-3.70;99.90
2407;DHT22;37709;53.480;9.688;2023-02-26T06:42:18;-3.70;99.90
2407;DHT22;37709;53.480;9.688;2023-02-26T06:44:47;-3.70;99.90
2407;DHT22;37709;53.480;9.688;2023-02-26T06:47:14;-3.70;99.90
2407;DHT22;37709;53.480;9.688;2023-02-26T06:49:41;-3.60;99.90
2407;DHT22;37709;53.480;9.688;2023-02-26T06:52:09;-3.50;99.90
2407;DHT22;37709;53.480;9.688;2023-02-26T06:54:36;-3.60;99.90
2407;DHT22;37709;53.480;9.688;2023-02-26T06:57:04;-3.40;99.90
2407;DHT22;37709;53.480;9.688;2023-02-26T06:59:31;-3.00;99.90
2407;DHT22;37709;53.480;9.688;2023-02-26T07:01:58;-2.60;99.90
2407;DHT22;37709;53.480;9.688;2023-02-26T07:04:25;-2.30;99.90
2407;DHT22;37709;53.480;9.688;2023-02-26T07:06:53;-2.20;99.90
2407;DHT22;37709;53.480;9.688;2023-02-26T07:09:20;-2.00;99.90
2407;DHT22;37709;53.480;9.688;2023-02-26T07:11:48;-1.70;99.90
2407;DHT22;37709;53.480;9.688;2023-02-26T07:14:15;-1.40;99.90
2407;DHT22;37709;53.480;9.688;2023-02-26T07:16:43;-0.80;99.90
2407;DHT22;37709;53.480;9.688;2023-02-26T07:19:11;0.10;99.90
2407;DHT22;37709;53.480;9.688;2023-02-26T07:21:38;0.70;99.90
2407;DHT22;37709;53.480;9.688;2023-02-26T07:24:06;0.70;99.90
2407;DHT22;37709;53.480;9.688;2023-02-26T07:26:33;-0.10;99.90
2407;DHT22;37709;53.480;9.688;2023-02-26T07:29:01;-0.70;99.90
2407;DHT22;37709;53.480;9.688;2023-02-26T07:31:29;-1.00;99.90
2407;DHT22;37709;53.480;9.688;2023-02-26T07:33:57;-1.20;99.90
2407;DHT22;37709;53.480;9.688;2023-02-26T07:36:25;-1.30;99.90
2407;DHT22;37709;53.480;9.688;2023-02-26T07:38:52;-1.30;99.90
2407;DHT22;37709;53.480;9.688;2023-02-26T07:41:25;-0.70;99.90
2407;DHT22;37709;53.480;9.688;2023-02-26T07:43:52;0.10;99.90
2407;DHT22;37709;53.480;9.688;2023-02-26T07:46:20;0.70;99.90
2407;DHT22;37709;53.480;9.688;2023-02-26T07:48:47;0.90;99.90
2407;DHT22;37709;53.480;9.688;2023-02-26T07:51:15;1.90;99.90
2407;DHT22;37709;53.480;9.688;2023-02-26T07:53:42;3.00;99.90
2407;DHT22;37709;53.480;9.688;2023-02-26T07:56:09;3.70;99.90
2407;DHT22;37709;53.480;9.688;2023-02-26T07:58:36;4.10;99.90
2407;DHT22;37709;53.480;9.688;2023-02-26T08:01:04;4.80;99.90
2407;DHT22;37709;53.480;9.688;2023-02-26T08:03:33;5.30;99.90
2407;DHT22;37709;53.480;9.688;2023-02-26T08:06:00;5.70;99.90
2407;DHT22;37709;53.480;9.688;2023-02-26T08:08:29;5.90;99.90
2407;DHT22;37709;53.480;9.688;2023-02-26T08:10:58;6.10;99.90
2407;DHT22;37709;53.480;9.688;2023-02-26T08:13:26;5.70;99.90
2407;DHT22;37709;53.480;9.688;2023-02-26T08:15:54;6.30;99.90
2407;DHT22;37709;53.480;9.688;2023-02-26T08:18:21;7.10;99.90
2407;DHT22;37709;53.480;9.688;2023-02-26T08:20:50;7.40;99.90
2407;DHT22;37709;53.480;9.688;2023-02-26T08:23:18;7.70;99.90
2407;DHT22;37709;53.480;9.688;2023-02-26T08:25:46;8.20;99.90
2407;DHT22;37709;53.480;9.688;2023-02-26T08:28:13;8.20;99.30
2407;DHT22;37709;53.480;9.688;2023-02-26T08:30:42;8.70;99.90
2407;DHT22;37709;53.480;9.688;2023-02-26T08:33:09;8.90;96.30
2407;DHT22;37709;53.480;9.688;2023-02-26T08:35:37;9.30;98.80
2407;DHT22;37709;53.480;9.688;2023-02-26T08:38:05;9.90;96.80
2407;DHT22;37709;53.480;9.688;2023-02-26T08:40:32;10.10;94.40
2407;DHT22;37709;53.480;9.688;2023-02-26T08:43:00;10.20;93.00
2407;DHT22;37709;53.480;9.688;2023-02-26T08:45:27;10.80;93.60
2407;DHT22;37709;53.480;9.688;2023-02-26T08:47:55;10.60;90.20
2407;DHT22;37709;53.480;9.688;2023-02-26T08:50:24;11.00;90.30
2407;DHT22;37709;53.480;9.688;2023-02-26T08:52:52;11.60;90.10
2407;DHT22;37709;53.480;9.688;2023-02-26T08:55:20;12.10;88.20
2407;DHT22;37709;53.480;9.688;2023-02-26T08:57:47;12.40;87.60
2407;DHT22;37709;53.480;9.688;2023-02-26T09:00:14;13.20;85.80
2407;DHT22;37709;53.480;9.688;2023-02-26T09:02:45;13.60;83.60
2407;DHT22;37709;53.480;9.688;2023-02-26T09:05:12;13.90;82.00
2407;DHT22;37709;53.480;9.688;2023-02-26T09:07:41;14.30;79.00
2407;DHT22;37709;53.480;9.688;2023-02-26T09:10:09;15.00;79.40
2407;DHT22;37709;53.480;9.688;2023-02-26T09:12:37;15.40;76.70
2407;DHT22;37709;53.480;9.688;2023-02-26T09:15:05;15.30;73.60
2407;DHT22;37709;53.480;9.688;2023-02-26T09:17:34;15.60;73.00
2407;DHT22;37709;53.480;9.688;2023-02-26T09:20:03;15.20;71.30
2407;DHT22;37709;53.480;9.688;2023-02-26T09:22:31;15.80;71.80
2407;DHT22;37709;53.480;9.688;2023-02-26T09:24:59;16.40;69.60
2407;DHT22;37709;53.480;9.688;2023-02-26T09:27:27;17.10;68.20
2407;DHT22;37709;53.480;9.688;2023-02-26T09:29:54;18.10;67.10
2407;DHT22;37709;53.480;9.688;2023-02-26T09:32:21;18.90;65.00
2407;DHT22;37709;53.480;9.688;2023-02-26T09:34:49;19.10;62.60
2407;DHT22;37709;53.480;9.688;2023-02-26T09:37:17;19.60;62.70
2407;DHT22;37709;53.480;9.688;2023-02-26T09:39:45;18.60;58.70
2407;DHT22;37709;53.480;9.688;2023-02-26T09:42:45;18.30;58.50
2407;DHT22;37709;53.480;9.688;2023-02-26T09:45:29;18.80;61.10
2407;DHT22;37709;53.480;9.688;2023-02-26T09:47:59;18.70;57.50
2407;DHT22;37709;53.480;9.688;2023-02-26T09:50:43;17.70;60.70
2407;DHT22;37709;53.480;9.688;2023-02-26T09:55:47;17.40;60.40
2407;DHT22;37709;53.480;9.688;2023-02-26T09:58:27;18.80;56.90
2407;DHT22;37709;53.480;9.688;2023-02-26T10:01:00;16.70;54.70
2407;DHT22;37709;53.480;9.688;2023-02-26T10:08:54;18.20;55.10
2407;DHT22;37709;53.480;9.688;2023-02-26T10:14:15;20.30;54.90
2407;DHT22;37709;53.480;9.688;2023-02-26T10:16:50;22.40;54.30
2407;DHT22;37709;53.480;9.688;2023-02-26T10:19:24;23.10;51.80
2407;DHT22;37709;53.480;9.688;2023-02-26T10:21:59;21.80;49.10
2407;DHT22;37709;53.480;9.688;2023-02-26T10:24:42;18.90;51.10
2407;DHT22;37709;53.480;9.688;2023-02-26T10:27:14;19.70;52.10
2407;DHT22;37709;53.480;9.688;2023-02-26T10:29:59;19.80;51.70
2407;DHT22;37709;53.480;9.688;2023-02-26T10:32:42;19.80;50.90
2407;DHT22;37709;53.480;9.688;2023-02-26T10:35:17;21.20;51.20
2407;DHT22;37709;53.480;9.688;2023-02-26T10:37:50;23.40;50.00
2407;DHT22;37709;53.480;9.688;2023-02-26T10:40:38;23.60;47.30
2407;DHT22;37709;53.480;9.688;2023-02-26T10:43:27;25.20;46.40
2407;DHT22;37709;53.480;9.688;2023-02-26T10:46:05;21.90;46.20
2407;DHT22;37709;53.480;9.688;2023-02-26T10:51:24;16.80;53.20
2407;DHT22;37709;53.480;9.688;2023-02-26T10:53:59;15.50;56.50
2407;DHT22;37709;53.480;9.688;2023-02-26T10:56:31;14.40;56.70
2407;DHT22;37709;53.480;9.688;2023-02-26T10:58:59;13.80;58.20
2407;DHT22;37709;53.480;9.688;2023-02-26T11:01:29;13.60;58.00
2407;DHT22;37709;53.480;9.688;2023-02-26T11:04:06;14.40;59.00
2407;DHT22;37709;53.480;9.688;2023-02-26T11:06:37;13.70;55.70
2407;DHT22;37709;53.480;9.688;2023-02-26T11:09:33;13.60;56.60
2407;DHT22;37709;53.480;9.688;2023-02-26T11:14:33;13.20;59.50
2407;DHT22;37709;53.480;9.688;2023-02-26T11:17:03;14.40;57.90
2407;DHT22;37709;53.480;9.688;2023-02-26T11:19:39;15.20;57.80
2407;DHT22;37709;53.480;9.688;2023-02-26T11:22:10;15.70;55.30
2407;DHT22;37709;53.480;9.688;2023-02-26T11:24:42;15.50;57.70
2407;DHT22;37709;53.480;9.688;2023-02-26T11:27:17;15.80;57.40
2407;DHT22;37709;53.480;9.688;2023-02-26T11:29:54;16.10;55.60
2407;DHT22;37709;53.480;9.688;2023-02-26T11:32:29;19.20;52.30
2407;DHT22;37709;53.480;9.688;2023-02-26T11:34:56;22.50;49.50
2407;DHT22;37709;53.480;9.688;2023-02-26T11:37:29;24.50;47.90
2407;DHT22;37709;53.480;9.688;2023-02-26T11:40:03;25.80;42.90
2407;DHT22;37709;53.480;9.688;2023-02-26T11:42:37;23.90;44.10
2407;DHT22;37709;53.480;9.688;2023-02-26T11:45:06;20.10;49.80
2407;DHT22;37709;53.480;9.688;2023-02-26T11:47:33;18.00;52.00
2407;DHT22;37709;53.480;9.688;2023-02-26T11:50:04;16.00;52.50
2407;DHT22;37709;53.480;9.688;2023-02-26T11:52:41;14.10;54.50
2407;DHT22;37709;53.480;9.688;2023-02-26T11:55:29;12.70;60.00
2407;DHT22;37709;53.480;9.688;2023-02-26T11:57:58;12.10;62.40
2407;DHT22;37709;53.480;9.688;2023-02-26T12:00:34;11.70;64.40
2407;DHT22;37709;53.480;9.688;2023-02-26T12:03:06;11.10;63.80
2407;DHT22;37709;53.480;9.688;2023-02-26T12:05:36;10.90;66.80
2407;DHT22;37709;53.480;9.688;2023-02-26T12:08:16;10.70;62.30
2407;DHT22;37709;53.480;9.688;2023-02-26T12:16:31;13.40;62.30
2407;DHT22;37709;53.480;9.688;2023-02-26T12:19:29;13.10;58.80
2407;DHT22;37709;53.480;9.688;2023-02-26T12:22:41;12.10;60.80
2407;DHT22;37709;53.480;9.688;2023-02-26T12:25:48;11.50;62.60
2407;DHT22;37709;53.480;9.688;2023-02-26T12:28:56;11.20;64.60
2407;DHT22;37709;53.480;9.688;2023-02-26T12:34:45;10.40;65.20
2407;DHT22;37709;53.480;9.688;2023-02-26T12:37:42;10.30;63.70
2407;DHT22;37709;53.480;9.688;2023-02-26T12:40:17;11.20;65.00
2407;DHT22;37709;53.480;9.688;2023-02-26T12:46:07;12.70;59.60
2407;DHT22;37709;53.480;9.688;2023-02-26T12:49:01;12.00;62.40
2407;DHT22;37709;53.480;9.688;2023-02-26T12:52:05;11.20;59.20
2407;DHT22;37709;53.480;9.688;2023-02-26T13:08:38;9.40;66.70
2407;DHT22;37709;53.480;9.688;2023-02-26T13:16:58;9.60;70.20
2407;DHT22;37709;53.480;9.688;2023-02-26T13:22:11;9.10;71.50
2407;DHT22;37709;53.480;9.688;2023-02-26T13:25:28;8.50;71.10
2407;DHT22;37709;53.480;9.688;2023-02-26T13:27:58;8.40;72.10
2407;DHT22;37709;53.480;9.688;2023-02-26T13:30:38;11.10;70.50
2407;DHT22;37709;53.480;9.688;2023-02-26T13:33:26;12.00;66.00
2407;DHT22;37709;53.480;9.688;2023-02-26T13:35:56;11.10;67.40
2407;DHT22;37709;53.480;9.688;2023-02-26T13:47:11;9.30;73.60
2407;DHT22;37709;53.480;9.688;2023-02-26T13:50:00;9.30;73.00
2407;DHT22;37709;53.480;9.688;2023-02-26T13:52:34;9.10;73.50
2407;DHT22;37709;53.480;9.688;2023-02-26T13:55:04;9.00;72.50
2407;DHT22;37709;53.480;9.688;2023-02-26T13:57:33;8.60;72.80
2407;DHT22;37709;53.480;9.688;2023-02-26T14:00:27;8.70;75.10
2407;DHT22;37709;53.480;9.688;2023-02-26T14:02:57;8.50;74.00
2407;DHT22;37709;53.480;9.688;2023-02-26T14:10:57;8.40;76.00
2407;DHT22;37709;53.480;9.688;2023-02-26T14:13:35;8.10;73.70
2407;DHT22;37709;53.480;9.688;2023-02-26T14:16:12;7.80;73.60
2407;DHT22;37709;53.480;9.688;2023-02-26T14:29:59;7.40;77.90
2407;DHT22;37709;53.480;9.688;2023-02-26T14:32:31;7.20;77.20
2407;DHT22;37709;53.480;9.688;2023-02-26T14:35:05;7.20;76.70
2407;DHT22;37709;53.480;9.688;2023-02-26T14:37:33;7.20;77.90
2407;DHT22;37709;53.480;9.688;2023-02-26T14:40:24;7.30;79.30
2407;DHT22;37709;53.480;9.688;2023-02-26T14:42:56;7.80;78.70
2407;DHT22;37709;53.480;9.688;2023-02-26T14:45:31;8.90;75.00
2407;DHT22;37709;53.480;9.688;2023-02-26T14:48:00;9.90;72.40
2407;DHT22;37709;53.480;9.688;2023-02-26T14:50:45;9.90;70.50
2407;DHT22;37709;53.480;9.688;2023-02-26T14:56:44;9.60;72.20
2407;DHT22;37709;53.480;9.688;2023-02-26T14:59:43;9.60;73.30
2407;DHT22;37709;53.480;9.688;2023-02-26T15:05:39;9.20;72.70
2407;DHT22;37709;53.480;9.688;2023-02-26T15:08:29;8.60;71.00
2407;DHT22;37709;53.480;9.688;2023-02-26T15:17:28;7.60;79.50
2407;DHT22;37709;53.480;9.688;2023-02-26T15:22:39;8.30;76.60
2407;DHT22;37709;53.480;9.688;2023-02-26T15:25:18;8.30;74.80
2407;DHT22;37709;53.480;9.688;2023-02-26T15:27:49;8.30;75.10
2407;DHT22;37709;53.480;9.688;2023-02-26T15:30:16;8.00;71.80
2407;DHT22;37709;53.480;9.688;2023-02-26T15:32:45;8.10;75.40
2407;DHT22;37709;53.480;9.688;2023-02-26T15:35:21;8.50;76.90
2407;DHT22;37709;53.480;9.688;2023-02-26T15:37:53;8.80;76.20
2407;DHT22;37709;53.480;9.688;2023-02-26T15:40:22;9.00;74.20
2407;DHT22;37709;53.480;9.688;2023-02-26T15:42:52;9.00;72.90
2407;DHT22;37709;53.480;9.688;2023-02-26T15:45:44;9.30;73.80
2407;DHT22;37709;53.480;9.688;2023-02-26T15:48:21;9.10;72.20
2407;DHT22;37709;53.480;9.688;2023-02-26T15:50:55;8.40;72.40
2407;DHT22;37709;53.480;9.688;2023-02-26T15:56:05;7.40;74.70
2407;DHT22;37709;53.480;9.688;2023-02-26T15:58:41;7.20;77.30
2407;DHT22;37709;53.480;9.688;2023-02-26T16:01:17;7.10;79.50
2407;DHT22;37709;53.480;9.688;2023-02-26T16:03:45;6.90;80.40
2407;DHT22;37709;53.480;9.688;2023-02-26T16:06:16;6.60;80.60
2407;DHT22;37709;53.480;9.688;2023-02-26T16:08:44;6.20;80.30
2407;DHT22;37709;53.480;9.688;2023-02-26T16:11:12;5.80;79.10
2407;DHT22;37709;53.480;9.688;2023-02-26T16:13:41;5.50;82.20
2407;DHT22;37709;53.480;9.688;2023-02-26T16:16:17;5.20;82.40
2407;DHT22;37709;53.480;9.688;2023-02-26T16:18:48;5.10;84.20
2407;DHT22;37709;53.480;9.688;2023-02-26T16:21:22;4.90;84.20
2407;DHT22;37709;53.480;9.688;2023-02-26T16:23:52;4.80;82.50
2407;DHT22;37709;53.480;9.688;2023-02-26T16:26:26;4.70;82.30
2407;DHT22;37709;53.480;9.688;2023-02-26T16:29:20;4.60;82.90
2407;DHT22;37709;53.480;9.688;2023-02-26T16:31:53;4.40;83.90
2407;DHT22;37709;53.480;9.688;2023-02-26T16:34:27;4.30;83.10
2407;DHT22;37709;53.480;9.688;2023-02-26T16:36:55;4.20;84.40
2407;DHT22;37709;53.480;9.688;2023-02-26T16:39:25;4.00;83.60
2407;DHT22;37709;53.480;9.688;2023-02-26T16:42:07;3.70;84.80
2407;DHT22;37709;53.480;9.688;2023-02-26T16:45:00;3.50;84.00
2407;DHT22;37709;53.480;9.688;2023-02-26T16:47:29;3.30;86.40
2407;DHT22;37709;53.480;9.688;2023-02-26T16:49:57;3.10;88.10
2407;DHT22;37709;53.480;9.688;2023-02-26T16:52:25;3.00;89.50
2407;DHT22;37709;53.480;9.688;2023-02-26T16:55:02;2.90;88.90
2407;DHT22;37709;53.480;9.688;2023-02-26T16:57:37;2.80;89.10
2407;DHT22;37709;53.480;9.688;2023-02-26T17:00:10;2.60;89.90
2407;DHT22;37709;53.480;9.688;2023-02-26T17:02:45;2.60;91.30
2407;DHT22;37709;53.480;9.688;2023-02-26T17:05:22;2.60;91.40
2407;DHT22;37709;53.480;9.688;2023-02-26T17:08:12;2.60;91.70
2407;DHT22;37709;53.480;9.688;2023-02-26T17:10:47;2.50;92.20
2407;DHT22;37709;53.480;9.688;2023-02-26T17:13:38;2.30;91.70
2407;DHT22;37709;53.480;9.688;2023-02-26T17:16:11;2.10;92.40
2407;DHT22;37709;53.480;9.688;2023-02-26T17:18:38;1.90;92.80
2407;DHT22;37709;53.480;9.688;2023-02-26T17:21:06;1.80;93.30
2407;DHT22;37709;53.480;9.688;2023-02-26T17:23:36;1.70;93.70
2407;DHT22;37709;53.480;9.688;2023-02-26T17:26:04;1.60;94.50
2407;DHT22;37709;53.480;9.688;2023-02-26T17:28:35;1.50;95.10
2407;DHT22;37709;53.480;9.688;2023-02-26T17:31:03;1.50;95.40
2407;DHT22;37709;53.480;9.688;2023-02-26T17:33:31;1.50;95.10
2407;DHT22;37709;53.480;9.688;2023-02-26T17:36:00;1.50;95.30
2407;DHT22;37709;53.480;9.688;2023-02-26T17:38:28;1.50;95.60
2407;DHT22;37709;53.480;9.688;2023-02-26T17:40:55;1.40;96.30
2407;DHT22;37709;53.480;9.688;2023-02-26T17:43:24;1.20;97.30
2407;DHT22;37709;53.480;9.688;2023-02-26T17:45:52;1.10;98.00
2407;DHT22;37709;53.480;9.688;2023-02-26T17:48:19;1.00;98.70
2407;DHT22;37709;53.480;9.688;2023-02-26T17:50:52;0.80;99.30
2407;DHT22;37709;53.480;9.688;2023-02-26T17:53:22;0.70;99.90
2407;DHT22;37709;53.480;9.688;2023-02-26T17:55:53;0.50;99.90
2407;DHT22;37709;53.480;9.688;2023-02-26T17:58:27;0.40;99.90
2407;DHT22;37709;53.480;9.688;2023-02-26T18:00:55;0.30;99.90
2407;DHT22;37709;53.480;9.688;2023-02-26T18:03:23;0.20;99.90
2407;DHT22;37709;53.480;9.688;2023-02-26T18:05:51;0.00;99.90
2407;DHT22;37709;53.480;9.688;2023-02-26T18:08:23;-0.10;99.90
2407;DHT22;37709;53.480;9.688;2023-02-26T18:10:51;-0.30;99.90
2407;DHT22;37709;53.480;9.688;2023-02-26T18:13:19;-0.40;99.90
2407;DHT22;37709;53.480;9.688;2023-02-26T18:15:47;-0.40;99.90
2407;DHT22;37709;53.480;9.688;2023-02-26T18:18:15;-0.50;99.90
2407;DHT22;37709;53.480;9.688;2023-02-26T18:20:44;-0.60;99.90
2407;DHT22;37709;53.480;9.688;2023-02-26T18:23:12;-0.80;99.90
2407;DHT22;37709;53.480;9.688;2023-02-26T18:25:43;-0.90;99.90
2407;DHT22;37709;53.480;9.688;2023-02-26T18:28:22;-1.00;99.90
2407;DHT22;37709;53.480;9.688;2023-02-26T18:30:49;-1.10;99.90
2407;DHT22;37709;53.480;9.688;2023-02-26T18:33:19;-1.20;99.90
2407;DHT22;37709;53.480;9.688;2023-02-26T18:35:49;-1.30;99.90
2407;DHT22;37709;53.480;9.688;2023-02-26T18:38:21;-1.40;99.90